Time;durP1;ratioP1;P1;durP2;ratioP2;P2;SDS_P1;SDS_P2;PMS_P1;PMS_P2;Temp;Humidity;BMP_temperature;BMP_pressure;BME280_temperature;BME280_humidity;BME280_pressure;Samples;Min_cycle;Max_cycle;Signal;HPM_P1;HPM_P2
2022/06/08 00:00:14;;;;;;;0.63;0.63;;;;;15.30;98037.00;;;;5095942;28;20340;-72
2022/06/08 00:02:43;;;;;;;0.67;0.67;;;;;15.30;98037.00;;;;5096055;28;20681;-72
2022/06/08 00:05:11;;;;;;;2.67;1.07;;;;;15.40;98030.00;;;;5095889;28;20223;-72
2022/06/08 00:07:38;;;;;;;0.50;0.50;;;;;15.30;98032.00;;;;5095726;28;20633;-72
2022/06/08 00:10:09;;;;;;;0.57;0.57;;;;;15.30;98037.00;;;;5095676;28;20191;-72
2022/06/08 00:12:36;;;;;;;0.80;0.80;;;;;15.30;98026.00;;;;5095702;28;20223;-72
2022/06/08 00:15:03;;;;;;;0.67;0.67;;;;;15.20;98028.00;;;;5077982;28;20605;-72
2022/06/08 00:17:33;;;;;;;1.13;0.60;;;;;15.10;98032.00;;;;5095683;28;20226;-73
2022/06/08 00:20:00;;;;;;;0.40;0.40;;;;;15.10;98016.00;;;;5078175;28;20669;-72
2022/06/08 00:22:27;;;;;;;0.40;0.40;;;;;15.10;98027.00;;;;5095641;28;20213;-72
2022/06/08 00:24:57;;;;;;;0.60;0.60;;;;;15.20;98022.00;;;;5095485;28;20661;-72
2022/06/08 00:27:24;;;;;;;0.50;0.50;;;;;15.20;98011.00;;;;5077831;28;20203;-72
2022/06/08 00:29:53;;;;;;;0.40;0.40;;;;;15.30;98021.00;;;;5095570;28;20187;-72
2022/06/08 00:32:20;;;;;;;0.40;0.40;;;;;15.20;98022.00;;;;5095381;28;20246;-72
2022/06/08 00:34:47;;;;;;;0.50;0.50;;;;;15.20;98004.00;;;;5095357;28;20538;-72
2022/06/08 00:37:15;;;;;;;0.50;0.50;;;;;15.20;98010.00;;;;5095404;28;20276;-72
2022/06/08 00:39:41;;;;;;;0.50;0.50;;;;;15.20;97999.00;;;;5077806;28;20235;-72
2022/06/08 00:42:14;;;;;;;0.50;0.50;;;;;15.20;98002.00;;;;5095353;28;20653;-73
2022/06/08 00:44:45;;;;;;;0.83;0.83;;;;;15.20;98002.00;;;;5095125;28;20230;-72
2022/06/08 00:47:15;;;;;;;0.50;0.50;;;;;15.20;98001.00;;;;5095265;28;20264;-72
2022/06/08 00:49:46;;;;;;;0.50;0.50;;;;;15.10;98009.00;;;;5095304;28;20229;-72
2022/06/08 00:52:15;;;;;;;1.33;1.33;;;;;15.20;98000.00;;;;5095120;28;20190;-73
2022/06/08 00:54:46;;;;;;;0.60;0.60;;;;;15.20;98003.00;;;;5095076;28;20274;-72
2022/06/08 00:57:18;;;;;;;0.40;0.40;;;;;15.00;98007.00;;;;5094342;28;20548;-72
2022/06/08 00:59:48;;;;;;;0.70;0.70;;;;;15.00;98001.00;;;;5095049;28;20197;-72
2022/06/08 01:02:15;;;;;;;0.50;0.50;;;;;15.00;97995.00;;;;5094998;28;20209;-72
2022/06/08 01:04:42;;;;;;;0.60;0.60;;;;;15.10;97997.00;;;;5077243;28;20504;-72
2022/06/08 01:07:18;;;;;;;0.50;0.50;;;;;14.90;98000.00;;;;5094901;28;20241;-72
2022/06/08 01:09:45;;;;;;;0.43;0.43;;;;;14.80;97988.00;;;;5094862;28;20187;-72
2022/06/08 01:12:16;;;;;;;2.57;1.23;;;;;14.80;97992.00;;;;5094685;28;20197;-72
2022/06/08 01:14:47;;;;;;;0.50;0.50;;;;;14.90;97990.00;;;;5094993;28;20205;-72
2022/06/08 01:17:18;;;;;;;0.60;0.60;;;;;14.90;97988.00;;;;5094648;28;20234;-72
2022/06/08 01:19:47;;;;;;;0.50;0.50;;;;;14.80;97976.00;;;;5094862;28;20273;-72
2022/06/08 01:22:18;;;;;;;0.60;0.60;;;;;14.80;97979.00;;;;5095668;28;20191;-72
2022/06/08 01:24:50;;;;;;;0.50;0.50;;;;;14.60;97979.00;;;;5099177;28;20665;-72
2022/06/08 01:27:32;;;;;;;0.50;0.50;;;;;14.60;97979.00;;;;5095173;28;20626;-72
2022/06/08 01:30:19;;;;;;;0.50;0.50;;;;;14.60;97987.00;;;;5094669;28;20191;-72
2022/06/08 01:33:26;;;;;;;0.50;0.50;;;;;14.50;97972.00;;;;5094611;28;20254;-72
2022/06/08 01:36:08;;;;;;;0.53;0.53;;;;;14.60;97978.00;;;;5071643;28;20521;-72
2022/06/08 01:38:47;;;;;;;0.60;0.60;;;;;14.60;97963.00;;;;5094432;28;20194;-72
2022/06/08 01:41:34;;;;;;;0.40;0.40;;;;;14.60;97965.00;;;;5094453;28;20212;-73
2022/06/08 01:44:12;;;;;;;0.60;0.60;;;;;14.60;97962.00;;;;5094217;28;20230;-72
2022/06/08 01:46:44;;;;;;;0.53;0.53;;;;;14.60;97961.00;;;;5094391;28;20197;-72
2022/06/08 01:49:24;;;;;;;0.50;0.50;;;;;14.50;97966.00;;;;5094469;28;20254;-72
2022/06/08 01:52:16;;;;;;;0.40;0.40;;;;;14.40;97957.00;;;;5099122;28;20198;-72
2022/06/08 01:55:05;;;;;;;0.50;0.50;;;;;14.30;97960.00;;;;5090819;28;20299;-72
2022/06/08 01:57:47;;;;;;;0.50;0.50;;;;;14.30;97957.00;;;;5094242;28;20230;-72
2022/06/08 02:00:20;;;;;;;0.50;0.50;;;;;14.30;97955.00;;;;5094169;28;20175;-72
2022/06/08 02:02:56;;;;;;;0.53;0.53;;;;;14.20;97954.00;;;;5076259;28;20205;-71
2022/06/08 02:05:31;;;;;;;0.50;0.50;;;;;14.20;97952.00;;;;5094037;28;20194;-73
2022/06/08 02:08:06;;;;;;;0.90;0.90;;;;;14.30;97956.00;;;;5094003;28;20213;-74
2022/06/08 02:10:47;;;;;;;0.63;0.63;;;;;14.30;97952.00;;;;5094054;28;20338;-74
2022/06/08 02:13:19;;;;;;;0.40;0.40;;;;;14.20;97953.00;;;;5094017;28;20649;-72
2022/06/08 02:15:51;;;;;;;0.40;0.40;;;;;14.20;97953.00;;;;5093975;28;20260;-72
2022/06/08 02:18:23;;;;;;;1.07;0.90;;;;;14.30;97940.00;;;;5093872;28;20185;-72
2022/06/08 02:20:54;;;;;;;1.53;1.40;;;;;14.20;97938.00;;;;5076042;28;20301;-72
2022/06/08 02:23:26;;;;;;;0.80;0.80;;;;;14.20;97931.00;;;;5093717;28;20237;-72
2022/06/08 02:26:01;;;;;;;0.50;0.50;;;;;14.30;97936.00;;;;5093824;28;20201;-73
2022/06/08 02:28:33;;;;;;;0.77;0.77;;;;;14.30;97933.00;;;;5093794;28;20244;-72
2022/06/08 02:31:08;;;;;;;0.60;0.60;;;;;14.30;97925.00;;;;5093701;28;20233;-72
2022/06/08 02:36:30;;;;;;;0.60;0.60;;;;;14.10;97936.00;;;;5093660;28;20254;-73
2022/06/08 02:39:05;;;;;;;0.70;0.70;;;;;14.10;97923.00;;;;5095664;28;20248;-72
2022/06/08 02:41:36;;;;;;;0.40;0.40;;;;;14.10;97935.00;;;;5097193;28;20617;-72
2022/06/08 02:44:07;;;;;;;0.53;0.53;;;;;14.00;97931.00;;;;5097027;28;20545;-72
2022/06/08 02:46:41;;;;;;;0.70;0.70;;;;;14.10;97918.00;;;;5097247;28;20247;-72
2022/06/08 02:49:10;;;;;;;0.60;0.60;;;;;14.20;97923.00;;;;5079395;28;20206;-72
2022/06/08 02:51:43;;;;;;;0.70;0.70;;;;;14.10;97918.00;;;;5097030;28;20249;-72
2022/06/08 02:54:16;;;;;;;0.40;0.40;;;;;14.10;97920.00;;;;5096929;28;20222;-73
2022/06/08 02:56:51;;;;;;;0.50;0.50;;;;;14.10;97910.00;;;;5097034;28;20351;-72
2022/06/08 02:59:26;;;;;;;0.70;0.70;;;;;14.10;97924.00;;;;5096987;28;20283;-72
2022/06/08 03:02:00;;;;;;;0.60;0.60;;;;;14.00;97918.00;;;;5096906;28;20722;-72
2022/06/08 03:04:33;;;;;;;0.50;0.50;;;;;14.00;97917.00;;;;5096745;28;20228;-72
2022/06/08 03:07:05;;;;;;;0.60;0.60;;;;;14.00;97909.00;;;;5096801;28;20273;-72
2022/06/08 03:09:33;;;;;;;0.40;0.40;;;;;13.90;97903.00;;;;5096855;28;20222;-72
2022/06/08 03:12:09;;;;;;;0.50;0.50;;;;;14.00;97904.00;;;;5096778;28;20220;-73
2022/06/08 03:14:36;;;;;;;0.60;0.60;;;;;14.10;97902.00;;;;5096725;28;20183;-72
2022/06/08 03:17:08;;;;;;;0.60;0.60;;;;;14.10;97909.00;;;;5079366;28;20302;-72
2022/06/08 03:19:36;;;;;;;0.67;0.67;;;;;14.10;97905.00;;;;5096654;28;20191;-72
2022/06/08 03:22:06;;;;;;;0.60;0.60;;;;;14.10;97902.00;;;;5096617;28;20206;-72
2022/06/08 03:24:34;;;;;;;0.57;0.57;;;;;14.10;97898.00;;;;5096494;28;20208;-71
2022/06/08 03:27:03;;;;;;;0.40;0.40;;;;;14.00;97900.00;;;;5096654;28;20302;-72
2022/06/08 03:29:31;;;;;;;0.57;0.57;;;;;14.10;97891.00;;;;5096379;28;20316;-72
2022/06/08 03:32:00;;;;;;;0.70;0.70;;;;;14.00;97897.00;;;;5098811;28;20199;-73
2022/06/08 03:34:27;;;;;;;2.53;1.30;;;;;14.10;97897.00;;;;5097328;28;20234;-72
2022/06/08 03:36:54;;;;;;;0.70;0.70;;;;;14.10;97891.00;;;;5096318;28;20222;-72
2022/06/08 03:39:21;;;;;;;1.20;1.20;;;;;14.10;97888.00;;;;5096662;28;20285;-72
2022/06/08 03:41:48;;;;;;;0.80;0.80;;;;;14.20;97886.00;;;;5096273;28;20255;-71
2022/06/08 03:44:16;;;;;;;0.50;0.50;;;;;14.20;97892.00;;;;5096294;28;20368;-72
2022/06/08 03:46:49;;;;;;;0.40;0.40;;;;;14.20;97894.00;;;;5096265;28;20548;-72
2022/06/08 03:49:16;;;;;;;1.00;1.00;;;;;14.20;97880.00;;;;5078025;28;20287;-73
2022/06/08 03:51:44;;;;;;;0.60;0.60;;;;;14.30;97888.00;;;;5096228;28;20195;-73
2022/06/08 03:54:15;;;;;;;1.13;1.13;;;;;14.30;97887.00;;;;5096219;28;20222;-72
2022/06/08 03:56:45;;;;;;;0.70;0.70;;;;;14.30;97887.00;;;;5096115;28;20286;-72
2022/06/08 03:59:12;;;;;;;0.50;0.50;;;;;14.30;97887.00;;;;5078306;28;20520;-72
2022/06/08 04:01:40;;;;;;;0.60;0.60;;;;;14.40;97887.00;;;;5095866;28;20206;-72
2022/06/08 04:04:07;;;;;;;0.50;0.50;;;;;14.40;97890.00;;;;5095897;28;20283;-72
2022/06/08 04:06:34;;;;;;;1.10;1.07;;;;;14.40;97894.00;;;;5096065;28;20194;-73
2022/06/08 04:09:01;;;;;;;0.50;0.50;;;;;14.60;97885.00;;;;5078518;28;20851;-72
2022/06/08 04:11:28;;;;;;;0.50;0.50;;;;;14.60;97891.00;;;;5096253;28;20217;-72
2022/06/08 04:13:55;;;;;;;0.50;0.50;;;;;14.40;97890.00;;;;5077953;28;20226;-72
2022/06/08 04:16:23;;;;;;;2.20;1.03;;;;;14.60;97887.00;;;;5095649;28;20223;-72
2022/06/08 04:18:50;;;;;;;0.50;0.50;;;;;14.90;97879.00;;;;5095868;28;20210;-72
2022/06/08 04:21:20;;;;;;;0.50;0.50;;;;;14.80;97879.00;;;;5095756;28;20209;-72
2022/06/08 04:23:48;;;;;;;0.63;0.63;;;;;14.80;97885.00;;;;5095525;28;20233;-72
2022/06/08 04:26:16;;;;;;;0.70;0.70;;;;;14.70;97886.00;;;;5095666;28;20281;-72
2022/06/08 04:28:45;;;;;;;2.00;0.97;;;;;14.60;97886.00;;;;5095456;28;20202;-72
2022/06/08 04:31:14;;;;;;;0.63;0.63;;;;;14.90;97887.00;;;;5095676;28;20241;-72
2022/06/08 04:33:44;;;;;;;1.33;1.33;;;;;14.80;97897.00;;;;5077791;28;20291;-72
2022/06/08 04:36:14;;;;;;;0.57;0.57;;;;;14.80;97885.00;;;;5095307;28;20587;-72
2022/06/08 04:38:42;;;;;;;1.47;0.80;;;;;14.80;97882.00;;;;5095460;28;20259;-72
2022/06/08 04:41:09;;;;;;;0.40;0.40;;;;;14.70;97875.00;;;;5095335;28;20195;-72
2022/06/08 04:43:37;;;;;;;0.60;0.60;;;;;14.70;97876.00;;;;5095215;28;20250;-73
2022/06/08 04:46:06;;;;;;;0.50;0.50;;;;;14.70;97877.00;;;;5077331;28;20227;-71
2022/06/08 04:48:35;;;;;;;0.43;0.43;;;;;14.70;97873.00;;;;5095186;28;20257;-73
2022/06/08 04:51:03;;;;;;;1.17;1.17;;;;;14.90;97880.00;;;;5095196;28;20195;-72
2022/06/08 04:53:30;;;;;;;0.67;0.67;;;;;14.80;97876.00;;;;5095141;28;20214;-72
2022/06/08 04:55:57;;;;;;;0.50;0.50;;;;;14.90;97874.00;;;;5095067;28;20210;-72
2022/06/08 04:58:26;;;;;;;0.70;0.70;;;;;14.90;97876.00;;;;5095177;28;20263;-72
2022/06/08 05:00:53;;;;;;;0.60;0.60;;;;;14.80;97887.00;;;;5077143;28;20195;-71
2022/06/08 05:03:20;;;;;;;0.70;0.70;;;;;14.80;97888.00;;;;5098623;28;20238;-71
2022/06/08 05:05:50;;;;;;;0.80;0.80;;;;;14.80;97888.00;;;;5097112;28;20198;-72
2022/06/08 05:08:18;;;;;;;0.40;0.40;;;;;14.80;97889.00;;;;5078352;28;20198;-72
2022/06/08 05:10:46;;;;;;;0.57;0.57;;;;;14.90;97890.00;;;;5094995;28;20277;-70
2022/06/08 05:13:16;;;;;;;0.53;0.53;;;;;14.90;97889.00;;;;5094731;28;20650;-74
2022/06/08 05:15:45;;;;;;;0.50;0.50;;;;;15.00;97882.00;;;;5095922;28;20607;-72
2022/06/08 05:18:13;;;;;;;0.70;0.70;;;;;15.10;97885.00;;;;5077706;28;20289;-73
2022/06/08 05:20:42;;;;;;;0.70;0.70;;;;;15.20;97890.00;;;;5094813;28;20202;-72
2022/06/08 05:23:13;;;;;;;0.60;0.60;;;;;15.20;97888.00;;;;5094545;28;20219;-71
2022/06/08 05:25:41;;;;;;;0.60;0.60;;;;;15.30;97891.00;;;;5094653;28;20272;-71
2022/06/08 05:28:10;;;;;;;0.50;0.50;;;;;15.30;97893.00;;;;5094621;28;20212;-72
2022/06/08 05:30:37;;;;;;;0.90;0.90;;;;;15.50;97885.00;;;;5076557;28;20309;-72
2022/06/08 05:33:07;;;;;;;0.83;0.83;;;;;15.70;97883.00;;;;5076602;28;20230;-73
2022/06/08 05:35:37;;;;;;;0.67;0.67;;;;;15.70;97883.00;;;;5076857;28;20599;-72
2022/06/08 05:38:04;;;;;;;0.63;0.63;;;;;15.90;97878.00;;;;5094335;28;20210;-73
2022/06/08 05:40:35;;;;;;;0.60;0.60;;;;;16.10;97877.00;;;;5094208;28;20697;-72
2022/06/08 05:43:02;;;;;;;0.50;0.50;;;;;16.20;97869.00;;;;5094198;28;20287;-72
2022/06/08 05:45:31;;;;;;;14.20;1.00;;;;;16.30;97868.00;;;;5094404;28;20202;-72
2022/06/08 05:48:01;;;;;;;0.87;0.60;;;;;16.40;97876.00;;;;5094210;28;20190;-72
2022/06/08 05:50:29;;;;;;;0.60;0.60;;;;;16.40;97871.00;;;;5094107;28;20194;-72
2022/06/08 05:52:56;;;;;;;0.50;0.50;;;;;16.50;97882.00;;;;5076433;28;20562;-73
2022/06/08 05:55:25;;;;;;;0.50;0.50;;;;;16.70;97871.00;;;;5094050;28;20226;-72
2022/06/08 05:57:52;;;;;;;0.40;0.40;;;;;16.80;97876.00;;;;5094010;28;20202;-73
2022/06/08 06:00:21;;;;;;;0.40;0.40;;;;;16.70;97870.00;;;;5093956;28;20546;-72
2022/06/08 06:02:50;;;;;;;0.50;0.50;;;;;16.70;97858.00;;;;5093985;28;20280;-72
2022/06/08 06:05:19;;;;;;;0.90;0.90;;;;;16.80;97865.00;;;;5093910;28;20211;-72
2022/06/08 06:07:46;;;;;;;0.50;0.50;;;;;16.60;97861.00;;;;5093838;28;20264;-71
2022/06/08 06:10:14;;;;;;;1.00;1.00;;;;;16.90;97861.00;;;;5093839;28;20622;-71
2022/06/08 06:12:41;;;;;;;0.40;0.40;;;;;16.90;97869.00;;;;5093529;28;20186;-71
2022/06/08 06:15:12;;;;;;;0.57;0.57;;;;;17.00;97870.00;;;;5093667;28;20229;-72
2022/06/08 06:17:39;;;;;;;0.73;0.73;;;;;17.00;97868.00;;;;5093715;28;20205;-71
2022/06/08 06:20:08;;;;;;;0.40;0.40;;;;;16.90;97863.00;;;;5093870;28;20218;-69
2022/06/08 06:22:35;;;;;;;0.40;0.40;;;;;17.00;97855.00;;;;5093500;28;20741;-71
2022/06/08 06:25:03;;;;;;;1.30;1.20;;;;;17.10;97858.00;;;;5093638;28;20195;-72
2022/06/08 06:27:32;;;;;;;0.50;0.50;;;;;17.10;97857.00;;;;5093706;28;20198;-72
2022/06/08 06:29:59;;;;;;;0.50;0.50;;;;;17.20;97848.00;;;;5093580;28;20206;-72
2022/06/08 06:32:31;;;;;;;0.80;0.80;;;;;17.40;97844.00;;;;5093372;28;20187;-72
2022/06/08 06:34:59;;;;;;;0.50;0.50;;;;;17.40;97841.00;;;;5093485;28;20277;-71
2022/06/08 06:37:29;;;;;;;0.40;0.40;;;;;17.60;97848.00;;;;5093412;28;20278;-72
2022/06/08 06:39:56;;;;;;;0.60;0.60;;;;;17.80;97848.00;;;;5093313;28;20263;-70
2022/06/08 06:42:27;;;;;;;0.50;0.50;;;;;17.70;97848.00;;;;5093402;28;20567;-71
2022/06/08 06:44:54;;;;;;;0.40;0.40;;;;;17.80;97834.00;;;;5093419;28;20686;-72
2022/06/08 06:47:21;;;;;;;0.70;0.70;;;;;17.80;97828.00;;;;5075640;28;20244;-70
2022/06/08 06:49:49;;;;;;;0.40;0.40;;;;;17.90;97842.00;;;;5093322;28;20198;-70
2022/06/08 06:52:18;;;;;;;0.40;0.40;;;;;18.00;97843.00;;;;5076085;28;20198;-71
2022/06/08 06:54:48;;;;;;;0.57;0.57;;;;;18.00;97844.00;;;;5096729;28;20232;-71
2022/06/08 06:57:15;;;;;;;0.63;0.63;;;;;18.10;97844.00;;;;5093555;28;20660;-72
2022/06/08 06:59:43;;;;;;;0.63;0.63;;;;;18.20;97840.00;;;;5093113;28;20218;-73
2022/06/08 07:02:14;;;;;;;0.80;0.80;;;;;18.20;97840.00;;;;5093184;28;20295;-73
2022/06/08 07:04:41;;;;;;;0.40;0.40;;;;;18.10;97842.00;;;;5093148;28;20281;-72
2022/06/08 07:07:08;;;;;;;0.70;0.70;;;;;18.50;97834.00;;;;5092950;28;20218;-71
2022/06/08 07:09:36;;;;;;;0.77;0.77;;;;;18.40;97830.00;;;;5093115;28;20187;-71
2022/06/08 07:12:04;;;;;;;0.50;0.50;;;;;18.40;97833.00;;;;5092905;28;20319;-72
2022/06/08 07:14:35;;;;;;;0.43;0.43;;;;;18.30;97825.00;;;;5092985;28;20680;-72
2022/06/08 07:17:01;;;;;;;0.40;0.40;;;;;18.30;97819.00;;;;5093128;28;20267;-76
2022/06/08 07:19:28;;;;;;;0.50;0.50;;;;;18.20;97810.00;;;;5092956;28;20191;-71
2022/06/08 07:21:55;;;;;;;0.50;0.50;;;;;18.10;97818.00;;;;5092957;28;20191;-72
2022/06/08 07:24:30;;;;;;;4.43;0.67;;;;;18.10;97815.00;;;;5094017;28;20190;-72
2022/06/08 07:26:57;;;;;;;0.33;0.33;;;;;18.00;97817.00;;;;5096527;28;20206;-72
2022/06/08 07:29:25;;;;;;;0.50;0.50;;;;;18.00;97816.00;;;;5096342;28;20186;-71
2022/06/08 07:31:52;;;;;;;1.20;0.60;;;;;18.00;97812.00;;;;5096205;28;20693;-71
2022/06/08 07:34:19;;;;;;;0.47;0.47;;;;;18.10;97807.00;;;;5096240;28;20219;-71
2022/06/08 07:36:46;;;;;;;4.43;1.07;;;;;18.10;97798.00;;;;5096244;28;20194;-72
2022/06/08 07:39:15;;;;;;;0.40;0.40;;;;;18.20;97792.00;;;;5096267;28;20191;-71
2022/06/08 07:41:42;;;;;;;0.63;0.63;;;;;18.30;97791.00;;;;5096177;28;20241;-72
2022/06/08 07:44:12;;;;;;;0.50;0.50;;;;;18.30;97787.00;;;;5096008;28;20222;-72
2022/06/08 07:46:39;;;;;;;0.50;0.50;;;;;18.30;97788.00;;;;5096091;28;20202;-73
2022/06/08 07:51:56;;;;;;;0.30;0.30;;;;;18.50;97789.00;;;;5095910;28;20218;-72
2022/06/08 07:54:24;;;;;;;0.47;0.47;;;;;18.60;97775.00;;;;5095799;28;20218;-72
2022/06/08 07:56:55;;;;;;;0.50;0.50;;;;;18.70;97775.00;;;;5095842;28;20186;-72
2022/06/08 07:59:24;;;;;;;0.50;0.50;;;;;18.80;97773.00;;;;5095856;28;20218;-71
2022/06/08 08:01:52;;;;;;;0.40;0.40;;;;;18.90;97779.00;;;;5095739;28;20202;-72
2022/06/08 08:04:19;;;;;;;0.60;0.60;;;;;19.00;97777.00;;;;5078192;28;20680;-71
2022/06/08 08:06:46;;;;;;;0.60;0.60;;;;;19.00;97775.00;;;;5095674;28;20206;-72
2022/06/08 08:09:17;;;;;;;0.60;0.60;;;;;18.90;97773.00;;;;5077771;28;20229;-72
2022/06/08 08:11:45;;;;;;;0.37;0.37;;;;;19.00;97765.00;;;;5095598;28;20211;-72
2022/06/08 08:14:12;;;;;;;0.70;0.70;;;;;19.20;97755.00;;;;5095543;28;20218;-70
2022/06/08 08:16:43;;;;;;;0.60;0.60;;;;;19.10;97758.00;;;;5095514;28;20217;-72
2022/06/08 08:19:10;;;;;;;0.50;0.50;;;;;19.20;97759.00;;;;5095615;28;20214;-74
2022/06/08 08:21:37;;;;;;;0.40;0.40;;;;;19.30;97751.00;;;;5095501;28;20186;-71
2022/06/08 08:24:07;;;;;;;0.47;0.47;;;;;19.40;97747.00;;;;5095593;28;20665;-70
2022/06/08 08:26:34;;;;;;;0.50;0.50;;;;;19.30;97744.00;;;;5096867;28;20190;-71
2022/06/08 08:29:01;;;;;;;0.50;0.50;;;;;19.50;97755.00;;;;5095660;28;20191;-73
2022/06/08 08:31:28;;;;;;;0.33;0.33;;;;;19.50;97742.00;;;;5095339;28;20647;-70
2022/06/08 08:33:55;;;;;;;0.60;0.60;;;;;19.60;97744.00;;;;5095351;28;20276;-74
2022/06/08 08:36:22;;;;;;;1.43;1.00;;;;;19.80;97744.00;;;;5093784;28;20218;-72
2022/06/08 08:38:49;;;;;;;0.40;0.40;;;;;19.90;97746.00;;;;5095213;28;20281;-72
2022/06/08 08:44:15;;;;;;;0.40;0.40;;;;;20.10;97733.00;;;;5095118;28;20328;-74
2022/06/08 08:46:50;;;;;;;0.40;0.40;;;;;20.00;97740.00;;;;5095220;28;20264;-73
2022/06/08 08:49:20;;;;;;;0.80;0.80;;;;;20.10;97727.00;;;;5094899;28;20217;-72
2022/06/08 08:51:57;;;;;;;0.73;0.73;;;;;19.90;97722.00;;;;5094965;28;20203;-72
2022/06/08 08:54:29;;;;;;;0.40;0.40;;;;;20.30;97728.00;;;;5095039;28;20198;-71
2022/06/08 08:57:13;;;;;;;0.40;0.40;;;;;20.40;97724.00;;;;5094951;28;20285;-73
2022/06/08 08:59:44;;;;;;;0.43;0.43;;;;;20.30;97713.00;;;;5094919;28;20202;-72
2022/06/08 09:03:14;;;;;;;10.10;0.87;;;;;20.60;97700.00;;;;5094799;28;20248;-71
2022/06/08 09:05:12;;;;;;;0.60;0.60;;;;;20.60;97690.00;;;;5094686;28;20207;-72
2022/06/08 09:07:40;;;;;;;0.40;0.40;;;;;20.90;97701.00;;;;5094681;28;20206;-71
2022/06/08 09:10:11;;;;;;;1.80;0.57;;;;;21.10;97706.00;;;;5094738;28;20575;-71
2022/06/08 09:12:37;;;;;;;0.57;0.57;;;;;21.30;97689.00;;;;5094754;28;20255;-73
2022/06/08 09:15:07;;;;;;;0.73;0.73;;;;;21.40;97696.00;;;;5094383;28;20230;-72
2022/06/08 09:17:39;;;;;;;1.10;0.83;;;;;21.40;97692.00;;;;5094631;28;20278;-72
2022/06/08 09:20:24;;;;;;;0.40;0.40;;;;;21.80;97693.00;;;;5094571;28;20187;-71
2022/06/08 09:22:56;;;;;;;0.40;0.40;;;;;21.80;97692.00;;;;5094494;28;20226;-72
2022/06/08 09:25:27;;;;;;;0.57;0.57;;;;;21.80;97681.00;;;;5094352;28;20202;-71
2022/06/08 09:27:59;;;;;;;0.50;0.50;;;;;21.90;97674.00;;;;5094332;28;20251;-73
2022/06/08 09:30:28;;;;;;;0.50;0.50;;;;;22.10;97669.00;;;;5094441;28;20189;-74
2022/06/08 09:32:59;;;;;;;0.33;0.33;;;;;21.90;97674.00;;;;5094477;28;20202;-73
2022/06/08 09:35:31;;;;;;;1.02;1.02;;;;;22.00;97668.00;;;;5094467;28;20215;-72
2022/06/08 09:38:02;;;;;;;0.40;0.40;;;;;21.90;97657.00;;;;5094432;28;20187;-73
2022/06/08 09:40:40;;;;;;;0.40;0.40;;;;;22.20;97656.00;;;;5076539;28;20256;-73
2022/06/08 09:43:25;;;;;;;0.35;0.35;;;;;22.40;97659.00;;;;5094221;28;20210;-72
2022/06/08 09:45:55;;;;;;;0.57;0.57;;;;;22.70;97651.00;;;;5094221;28;20194;-74
2022/06/08 09:52:16;;;;;;;0.68;0.60;;;;;22.60;97654.00;;;;5088617;28;20219;-74
2022/06/08 09:54:54;;;;;;;0.40;0.40;;;;;22.70;97637.00;;;;5093890;28;20237;-71
2022/06/08 09:57:36;;;;;;;0.30;0.30;;;;;22.70;97637.00;;;;5094037;28;20259;-73
2022/06/08 10:00:28;;;;;;;0.50;0.50;;;;;22.90;97641.00;;;;5094095;28;20194;-72
2022/06/08 10:03:21;;;;;;;0.40;0.40;;;;;22.90;97643.00;;;;5094083;28;20533;-71
2022/06/08 10:05:56;;;;;;;0.32;0.32;;;;;22.80;97634.00;;;;5093922;28;20268;-71
2022/06/08 10:08:26;;;;;;;0.38;0.38;;;;;22.60;97635.00;;;;5076278;28;20226;-70
2022/06/08 10:11:01;;;;;;;0.40;0.40;;;;;22.70;97626.00;;;;5094571;28;20209;-71
2022/06/08 10:13:34;;;;;;;0.50;0.50;;;;;23.00;97619.00;;;;5093674;28;20222;-72
2022/06/08 10:16:06;;;;;;;0.40;0.40;;;;;23.20;97618.00;;;;5093899;28;20195;-72
2022/06/08 10:18:40;;;;;;;0.40;0.40;;;;;23.50;97620.00;;;;5093674;28;20277;-72
2022/06/08 10:21:13;;;;;;;0.50;0.50;;;;;23.70;97615.00;;;;5093539;28;20586;-72
2022/06/08 10:23:50;;;;;;;0.40;0.40;;;;;24.10;97619.00;;;;5093764;28;20394;-72
2022/06/08 10:26:23;;;;;;;0.43;0.43;;;;;23.60;97621.00;;;;5093490;28;20205;-72
2022/06/08 10:28:55;;;;;;;0.50;0.50;;;;;23.80;97610.00;;;;5093527;28;20194;-72
2022/06/08 10:31:31;;;;;;;0.35;0.35;;;;;24.20;97603.00;;;;5093548;28;20263;-73
2022/06/08 10:34:03;;;;;;;0.52;0.52;;;;;24.70;97610.00;;;;5075517;28;20238;-73
2022/06/08 10:36:32;;;;;;;0.40;0.40;;;;;24.20;97604.00;;;;5093466;28;20217;-72
2022/06/08 10:39:01;;;;;;;0.40;0.40;;;;;24.60;97610.00;;;;5075586;28;20534;-72
2022/06/08 10:44:34;;;;;;;0.40;0.40;;;;;24.60;97605.00;;;;5093361;28;20240;-72
2022/06/08 10:47:27;;;;;;;0.75;0.75;;;;;24.20;97608.00;;;;5093325;28;20217;-72
2022/06/08 10:50:11;;;;;;;0.40;0.40;;;;;24.40;97603.00;;;;5093261;28;20195;-72
2022/06/08 10:52:43;;;;;;;0.50;0.50;;;;;24.20;97597.00;;;;5093159;28;20229;-73
2022/06/08 10:55:33;;;;;;;0.50;0.50;;;;;24.70;97596.00;;;;5093127;28;20230;-75
2022/06/08 10:58:07;;;;;;;0.68;0.68;;;;;24.50;97585.00;;;;5093128;28;20302;-74
2022/06/08 11:00:58;;;;;;;2.55;0.75;;;;;24.90;97582.00;;;;5095956;28;20218;-74
2022/06/08 11:03:53;;;;;;;0.47;0.47;;;;;25.20;97571.00;;;;5096894;28;20710;-74
2022/06/08 11:06:59;;;;;;;0.40;0.40;;;;;25.10;97573.00;;;;5096663;28;20223;-73
2022/06/08 11:10:00;;;;;;;0.40;0.40;;;;;25.00;97570.00;;;;5096593;28;20252;-73
2022/06/08 11:12:46;;;;;;;0.50;0.50;;;;;24.50;97567.00;;;;5096623;28;20283;-71
2022/06/08 11:15:29;;;;;;;0.32;0.32;;;;;24.80;97562.00;;;;5096581;28;20313;-73
2022/06/08 11:18:01;;;;;;;0.65;0.65;;;;;24.80;97568.00;;;;5096507;28;20280;-74
2022/06/08 11:20:35;;;;;;;0.50;0.50;;;;;25.10;97559.00;;;;5096400;28;20222;-73
2022/06/08 11:23:06;;;;;;;0.40;0.40;;;;;25.40;97549.00;;;;5096442;28;20183;-73
2022/06/08 11:25:44;;;;;;;0.47;0.47;;;;;25.60;97554.00;;;;5096324;28;20746;-72
2022/06/08 11:28:35;;;;;;;0.40;0.40;;;;;25.50;97566.00;;;;5096415;28;20370;-74
2022/06/08 11:31:06;;;;;;;0.43;0.43;;;;;24.90;97563.00;;;;5096332;28;20354;-73
2022/06/08 11:33:53;;;;;;;0.40;0.40;;;;;24.50;97555.00;;;;5096280;28;20222;-72
2022/06/08 11:36:39;;;;;;;0.40;0.40;;;;;24.80;97540.00;;;;5096195;28;20251;-73
2022/06/08 11:39:17;;;;;;;0.50;0.50;;;;;24.60;97540.00;;;;5096348;28;20230;-72
2022/06/08 11:41:55;;;;;;;0.30;0.30;;;;;24.30;97541.00;;;;5078256;28;20556;-73
2022/06/08 11:44:22;;;;;;;0.38;0.38;;;;;24.60;97550.00;;;;5096217;28;20195;-72
2022/06/08 11:47:01;;;;;;;0.40;0.40;;;;;24.60;97553.00;;;;5097704;28;20234;-73
2022/06/08 11:49:34;;;;;;;0.40;0.40;;;;;23.70;97552.00;;;;5096147;28;20190;-71
2022/06/08 11:52:16;;;;;;;0.50;0.50;;;;;23.70;97552.00;;;;5095824;28;20214;-73
2022/06/08 11:54:45;;;;;;;0.40;0.40;;;;;23.80;97556.00;;;;5095866;28;20218;-73
2022/06/08 11:57:15;;;;;;;1.13;1.02;;;;;23.80;97556.00;;;;5095754;28;20230;-72
2022/06/08 11:59:44;;;;;;;0.43;0.43;;;;;23.40;97544.00;;;;5095916;28;20226;-73
2022/06/08 12:02:22;;;;;;;0.45;0.45;;;;;23.40;97551.00;;;;5095885;28;20264;-71
2022/06/08 12:04:53;;;;;;;0.60;0.60;;;;;23.30;97538.00;;;;5095777;28;20275;-72
2022/06/08 12:07:42;;;;;;;0.47;0.47;;;;;23.20;97536.00;;;;5095814;28;20226;-72
2022/06/08 12:10:13;;;;;;;0.40;0.40;;;;;23.30;97537.00;;;;5085464;28;20206;-71
2022/06/08 12:12:43;;;;;;;0.40;0.40;;;;;23.50;97526.00;;;;5094857;28;20206;-72
2022/06/08 12:15:45;;;;;;;0.50;0.50;;;;;23.80;97527.00;;;;5095743;28;20229;-72
2022/06/08 12:18:43;;;;;;;0.70;0.70;;;;;24.50;97518.00;;;;5014108;28;20200;-72
2022/06/08 12:21:26;;;;;;;0.63;0.63;;;;;24.60;97523.00;;;;5014061;28;20233;-73
2022/06/08 12:23:59;;;;;;;0.73;0.73;;;;;25.10;97504.00;;;;5080061;28;20234;-71
2022/06/08 12:26:36;;;;;;;3.35;0.50;;;;;25.70;97501.00;;;;5095601;28;20191;-71
2022/06/08 12:29:19;;;;;;;0.60;0.60;;;;;26.00;97501.00;;;;5095567;28;20195;-73
2022/06/08 12:31:47;;;;;;;0.50;0.50;;;;;26.70;97503.00;;;;5095474;28;20191;-74
2022/06/08 12:34:34;;;;;;;0.57;0.57;;;;;26.40;97510.00;;;;5095439;28;20223;-73
2022/06/08 12:37:36;;;;;;;0.75;0.75;;;;;26.40;97504.00;;;;5095330;28;20233;-72
2022/06/08 12:40:23;;;;;;;0.40;0.40;;;;;26.10;97504.00;;;;5088583;28;20218;-72
2022/06/08 12:42:53;;;;;;;0.40;0.40;;;;;25.90;97499.00;;;;5077403;28;20240;-72
2022/06/08 12:45:30;;;;;;;0.40;0.40;;;;;25.80;97494.00;;;;5077579;28;20206;-71
2022/06/08 12:47:58;;;;;;;4.18;0.75;;;;;26.40;97495.00;;;;5095234;28;20248;-72
2022/06/08 12:50:28;;;;;;;0.40;0.40;;;;;26.90;97488.00;;;;5095035;28;20284;-72
2022/06/08 12:52:56;;;;;;;1.48;0.80;;;;;26.90;97491.00;;;;5095359;28;20205;-71
2022/06/08 12:55:25;;;;;;;0.88;0.88;;;;;27.40;97474.00;;;;5077365;28;20227;-72
2022/06/08 12:57:53;;;;;;;0.60;0.60;;;;;27.60;97498.00;;;;5094988;28;20249;-73